sensor_id;sensor_type;location;lat;lon;timestamp;pressure;altitude;pressure_sealevel;temperature;humidity
71567;BME280;59403;47.456;19.120;2023-11-21T00:00:48;99836.47;;;4.39;100.00
71567;BME280;59403;47.456;19.120;2023-11-21T00:03:15;99837.12;;;4.41;100.00
71567;BME280;59403;47.456;19.120;2023-11-21T00:05:42;99829.53;;;4.38;100.00
71567;BME280;59403;47.456;19.120;2023-11-21T00:08:09;99828.28;;;4.33;100.00
71567;BME280;59403;47.456;19.120;2023-11-21T00:10:36;99820.25;;;4.25;100.00
71567;BME280;59403;47.456;19.120;2023-11-21T00:13:05;99811.25;;;4.18;100.00
71567;BME280;59403;47.456;19.120;2023-11-21T00:15:33;99809.72;;;4.15;100.00
71567;BME280;59403;47.456;19.120;2023-11-21T00:18:00;99814.56;;;4.20;100.00
71567;BME280;59403;47.456;19.120;2023-11-21T00:20:26;99809.59;;;4.17;100.00
71567;BME280;59403;47.456;19.120;2023-11-21T00:22:53;99814.00;;;4.16;100.00
71567;BME280;59403;47.456;19.120;2023-11-21T00:25:20;99822.22;;;4.12;100.00
71567;BME280;59403;47.456;19.120;2023-11-21T00:27:47;99828.59;;;4.09;100.00
71567;BME280;59403;47.456;19.120;2023-11-21T00:30:16;99824.41;;;4.07;100.00
71567;BME280;59403;47.456;19.120;2023-11-21T00:32:43;99828.84;;;4.06;100.00
71567;BME280;59403;47.456;19.120;2023-11-21T00:35:10;99825.66;;;4.03;100.00
71567;BME280;59403;47.456;19.120;2023-11-21T00:37:37;99830.91;;;4.03;100.00
71567;BME280;59403;47.456;19.120;2023-11-21T00:40:05;99838.75;;;4.03;100.00
71567;BME280;59403;47.456;19.120;2023-11-21T00:42:33;99841.37;;;4.03;100.00
71567;BME280;59403;47.456;19.120;2023-11-21T00:45:00;99840.53;;;4.02;100.00
71567;BME280;59403;47.456;19.120;2023-11-21T00:47:28;99839.69;;;4.02;100.00
71567;BME280;59403;47.456;19.120;2023-11-21T00:49:55;99837.78;;;4.04;100.00
71567;BME280;59403;47.456;19.120;2023-11-21T00:52:22;99843.03;;;4.04;100.00
71567;BME280;59403;47.456;19.120;2023-11-21T00:54:49;99836.00;;;4.04;100.00
71567;BME280;59403;47.456;19.120;2023-11-21T00:57:16;99841.37;;;4.03;100.00
71567;BME280;59403;47.456;19.120;2023-11-21T00:59:43;99842.44;;;4.00;100.00
71567;BME280;59403;47.456;19.120;2023-11-21T01:02:10;99844.12;;;4.01;100.00
71567;BME280;59403;47.456;19.120;2023-11-21T01:04:38;99843.44;;;3.99;100.00
71567;BME280;59403;47.456;19.120;2023-11-21T01:07:05;99843.78;;;3.95;100.00
71567;BME280;59403;47.456;19.120;2023-11-21T01:09:32;99844.19;;;3.90;100.00
71567;BME280;59403;47.456;19.120;2023-11-21T01:11:59;99847.38;;;3.94;100.00
71567;BME280;59403;47.456;19.120;2023-11-21T01:14:26;99838.12;;;3.90;100.00
71567;BME280;59403;47.456;19.120;2023-11-21T01:16:54;99830.25;;;3.90;100.00
71567;BME280;59403;47.456;19.120;2023-11-21T01:19:21;99835.75;;;3.87;100.00
71567;BME280;59403;47.456;19.120;2023-11-21T01:21:49;99825.41;;;3.85;100.00
71567;BME280;59403;47.456;19.120;2023-11-21T01:24:17;99815.78;;;3.86;100.00
71567;BME280;59403;47.456;19.120;2023-11-21T01:26:44;99822.09;;;3.83;100.00
71567;BME280;59403;47.456;19.120;2023-11-21T01:29:12;99818.50;;;3.84;100.00
71567;BME280;59403;47.456;19.120;2023-11-21T01:31:39;99813.41;;;3.83;100.00
71567;BME280;59403;47.456;19.120;2023-11-21T01:34:06;99820.44;;;3.82;100.00
71567;BME280;59403;47.456;19.120;2023-11-21T01:36:33;99814.38;;;3.82;100.00
71567;BME280;59403;47.456;19.120;2023-11-21T01:39:02;99806.62;;;3.80;100.00
71567;BME280;59403;47.456;19.120;2023-11-21T01:41:33;99805.81;;;3.80;100.00
71567;BME280;59403;47.456;19.120;2023-11-21T01:44:00;99808.69;;;3.77;100.00
71567;BME280;59403;47.456;19.120;2023-11-21T01:46:28;99807.00;;;3.76;100.00
71567;BME280;59403;47.456;19.120;2023-11-21T01:48:54;99806.31;;;3.74;100.00
71567;BME280;59403;47.456;19.120;2023-11-21T01:51:21;99817.75;;;3.73;100.00
71567;BME280;59403;47.456;19.120;2023-11-21T01:53:49;99818.81;;;3.70;100.00
71567;BME280;59403;47.456;19.120;2023-11-21T01:56:17;99810.87;;;3.72;100.00
71567;BME280;59403;47.456;19.120;2023-11-21T01:58:45;99809.19;;;3.71;100.00
71567;BME280;59403;47.456;19.120;2023-11-21T02:04:46;99796.94;;;3.71;100.00
71567;BME280;59403;47.456;19.120;2023-11-21T02:07:13;99800.56;;;3.80;100.00
71567;BME280;59403;47.456;19.120;2023-11-21T02:09:40;99795.19;;;3.81;100.00
71567;BME280;59403;47.456;19.120;2023-11-21T02:12:09;99787.34;;;3.81;100.00
71567;BME280;59403;47.456;19.120;2023-11-21T02:14:37;99786.41;;;3.82;100.00
71567;BME280;59403;47.456;19.120;2023-11-21T02:17:04;99780.31;;;3.82;100.00
71567;BME280;59403;47.456;19.120;2023-11-21T02:19:31;99782.81;;;3.83;100.00
71567;BME280;59403;47.456;19.120;2023-11-21T02:21:59;99777.56;;;3.83;100.00
71567;BME280;59403;47.456;19.120;2023-11-21T02:24:31;99774.38;;;3.80;100.00
71567;BME280;59403;47.456;19.120;2023-11-21T02:26:58;99770.78;;;3.81;100.00
71567;BME280;59403;47.456;19.120;2023-11-21T02:29:25;99786.50;;;3.81;100.00
71567;BME280;59403;47.456;19.120;2023-11-21T02:31:54;99778.78;;;3.79;100.00
71567;BME280;59403;47.456;19.120;2023-11-21T02:34:22;99768.56;;;3.76;100.00
71567;BME280;59403;47.456;19.120;2023-11-21T02:36:50;99767.59;;;3.77;100.00
71567;BME280;59403;47.456;19.120;2023-11-21T02:39:17;99782.88;;;3.72;100.00
71567;BME280;59403;47.456;19.120;2023-11-21T02:41:48;99768.69;;;3.75;100.00
71567;BME280;59403;47.456;19.120;2023-11-21T02:44:16;99772.84;;;3.77;100.00
71567;BME280;59403;47.456;19.120;2023-11-21T02:46:42;99774.38;;;3.80;100.00
71567;BME280;59403;47.456;19.120;2023-11-21T02:49:09;99776.28;;;3.78;100.00
71567;BME280;59403;47.456;19.120;2023-11-21T02:51:37;99774.88;;;3.74;100.00
71567;BME280;59403;47.456;19.120;2023-11-21T02:54:05;99774.78;;;3.75;100.00
71567;BME280;59403;47.456;19.120;2023-11-21T02:56:33;99768.56;;;3.76;100.00
71567;BME280;59403;47.456;19.120;2023-11-21T02:59:02;99763.19;;;3.78;100.00
71567;BME280;59403;47.456;19.120;2023-11-21T03:01:28;99766.53;;;3.80;100.00
71567;BME280;59403;47.456;19.120;2023-11-21T03:03:55;99759.75;;;3.77;100.00
71567;BME280;59403;47.456;19.120;2023-11-21T03:06:23;99764.66;;;3.71;100.00
71567;BME280;59403;47.456;19.120;2023-11-21T03:08:50;99764.28;;;3.55;100.00
71567;BME280;59403;47.456;19.120;2023-11-21T03:11:17;99759.84;;;3.66;100.00
71567;BME280;59403;47.456;19.120;2023-11-21T03:13:44;99744.84;;;3.68;100.00
71567;BME280;59403;47.456;19.120;2023-11-21T03:16:12;99743.16;;;3.67;100.00
71567;BME280;59403;47.456;19.120;2023-11-21T03:18:39;99733.25;;;3.71;100.00
71567;BME280;59403;47.456;19.120;2023-11-21T03:21:07;99738.50;;;3.71;100.00
71567;BME280;59403;47.456;19.120;2023-11-21T03:23:35;99745.28;;;3.73;100.00
71567;BME280;59403;47.456;19.120;2023-11-21T03:26:02;99739.25;;;3.62;100.00
71567;BME280;59403;47.456;19.120;2023-11-21T03:28:28;99730.19;;;3.66;100.00
71567;BME280;59403;47.456;19.120;2023-11-21T03:30:55;99736.56;;;3.73;100.00
71567;BME280;59403;47.456;19.120;2023-11-21T03:33:24;99731.91;;;3.76;100.00
71567;BME280;59403;47.456;19.120;2023-11-21T03:35:51;99730.00;;;3.78;100.00
71567;BME280;59403;47.456;19.120;2023-11-21T03:38:18;99721.31;;;3.78;100.00
71567;BME280;59403;47.456;19.120;2023-11-21T03:40:46;99715.69;;;3.82;100.00
71567;BME280;59403;47.456;19.120;2023-11-21T03:43:13;99713.19;;;3.81;100.00
71567;BME280;59403;47.456;19.120;2023-11-21T03:45:40;99698.31;;;3.81;100.00
71567;BME280;59403;47.456;19.120;2023-11-21T03:48:08;99697.59;;;3.79;100.00
71567;BME280;59403;47.456;19.120;2023-11-21T03:50:36;99699.28;;;3.80;100.00
71567;BME280;59403;47.456;19.120;2023-11-21T03:53:03;99693.91;;;3.82;100.00
71567;BME280;59403;47.456;19.120;2023-11-21T03:55:30;99710.13;;;3.76;100.00
71567;BME280;59403;47.456;19.120;2023-11-21T03:57:57;99713.72;;;3.75;100.00
71567;BME280;59403;47.456;19.120;2023-11-21T04:00:24;99720.72;;;3.74;100.00
71567;BME280;59403;47.456;19.120;2023-11-21T04:02:52;99729.44;;;3.75;100.00
71567;BME280;59403;47.456;19.120;2023-11-21T04:05:20;99727.06;;;3.72;100.00
71567;BME280;59403;47.456;19.120;2023-11-21T04:07:49;99728.72;;;3.73;100.00
71567;BME280;59403;47.456;19.120;2023-11-21T04:10:17;99731.34;;;3.73;100.00
71567;BME280;59403;47.456;19.120;2023-11-21T04:12:44;99732.03;;;3.75;100.00
71567;BME280;59403;47.456;19.120;2023-11-21T04:15:12;99728.84;;;3.71;100.00
71567;BME280;59403;47.456;19.120;2023-11-21T04:17:39;99740.84;;;3.74;100.00
71567;BME280;59403;47.456;19.120;2023-11-21T04:20:07;99740.03;;;3.73;100.00
71567;BME280;59403;47.456;19.120;2023-11-21T04:22:37;99748.69;;;3.74;100.00
71567;BME280;59403;47.456;19.120;2023-11-21T04:25:08;99748.59;;;3.75;100.00
71567;BME280;59403;47.456;19.120;2023-11-21T04:27:35;99756.56;;;3.74;100.00
71567;BME280;59403;47.456;19.120;2023-11-21T04:30:02;99747.06;;;3.73;100.00
71567;BME280;59403;47.456;19.120;2023-11-21T04:32:29;99750.37;;;3.75;100.00
71567;BME280;59403;47.456;19.120;2023-11-21T04:34:56;99748.97;;;3.71;100.00
71567;BME280;59403;47.456;19.120;2023-11-21T04:37:23;99752.41;;;3.71;100.00
71567;BME280;59403;47.456;19.120;2023-11-21T04:39:50;99748.69;;;3.74;100.00
71567;BME280;59403;47.456;19.120;2023-11-21T04:42:18;99743.47;;;3.74;100.00
71567;BME280;59403;47.456;19.120;2023-11-21T04:44:45;99750.25;;;3.76;100.00
71567;BME280;59403;47.456;19.120;2023-11-21T04:47:12;99757.25;;;3.76;100.00
71567;BME280;59403;47.456;19.120;2023-11-21T04:49:42;99757.37;;;3.74;100.00
71567;BME280;59403;47.456;19.120;2023-11-21T04:52:09;99761.91;;;3.72;100.00
71567;BME280;59403;47.456;19.120;2023-11-21T04:54:36;99771.19;;;3.76;100.00
71567;BME280;59403;47.456;19.120;2023-11-21T04:57:03;99770.34;;;3.76;100.00
71567;BME280;59403;47.456;19.120;2023-11-21T04:59:34;99777.97;;;3.79;100.00
71567;BME280;59403;47.456;19.120;2023-11-21T05:02:01;99775.22;;;3.80;100.00
71567;BME280;59403;47.456;19.120;2023-11-21T05:04:26;99776.03;;;3.81;100.00
71567;BME280;59403;47.456;19.120;2023-11-21T05:06:53;99779.34;;;3.83;100.00
71567;BME280;59403;47.456;19.120;2023-11-21T05:09:20;99783.50;;;3.85;100.00
71567;BME280;59403;47.456;19.120;2023-11-21T05:11:47;99794.56;;;3.89;100.00
71567;BME280;59403;47.456;19.120;2023-11-21T05:14:14;99791.66;;;3.92;100.00
71567;BME280;59403;47.456;19.120;2023-11-21T05:16:43;99794.72;;;3.97;100.00
71567;BME280;59403;47.456;19.120;2023-11-21T05:19:10;99799.84;;;3.98;100.00
71567;BME280;59403;47.456;19.120;2023-11-21T05:21:38;99797.78;;;4.02;100.00
71567;BME280;59403;47.456;19.120;2023-11-21T05:24:06;99799.47;;;4.03;100.00
71567;BME280;59403;47.456;19.120;2023-11-21T05:26:33;99793.25;;;4.04;100.00
71567;BME280;59403;47.456;19.120;2023-11-21T05:29:00;99781.69;;;4.06;100.00
71567;BME280;59403;47.456;19.120;2023-11-21T05:31:26;99771.87;;;4.08;100.00
71567;BME280;59403;47.456;19.120;2023-11-21T05:33:55;99776.06;;;4.11;100.00
71567;BME280;59403;47.456;19.120;2023-11-21T05:36:22;99775.91;;;4.12;100.00
71567;BME280;59403;47.456;19.120;2023-11-21T05:38:49;99782.69;;;4.15;100.00
71567;BME280;59403;47.456;19.120;2023-11-21T05:41:15;99781.72;;;4.16;100.00
71567;BME280;59403;47.456;19.120;2023-11-21T05:43:42;99783.25;;;4.18;100.00
71567;BME280;59403;47.456;19.120;2023-11-21T05:46:09;99782.56;;;4.16;100.00
71567;BME280;59403;47.456;19.120;2023-11-21T05:48:36;99783.97;;;4.20;100.00
71567;BME280;59403;47.456;19.120;2023-11-21T05:51:06;99779.66;;;4.19;100.00
71567;BME280;59403;47.456;19.120;2023-11-21T05:53:33;99779.53;;;4.21;100.00
71567;BME280;59403;47.456;19.120;2023-11-21T05:56:00;99771.81;;;4.19;100.00
71567;BME280;59403;47.456;19.120;2023-11-21T05:58:27;99762.88;;;4.22;100.00
71567;BME280;59403;47.456;19.120;2023-11-21T06:00:54;99771.16;;;4.27;100.00
71567;BME280;59403;47.456;19.120;2023-11-21T06:03:21;99784.12;;;4.28;100.00
71567;BME280;59403;47.456;19.120;2023-11-21T06:05:48;99806.88;;;4.28;100.00
71567;BME280;59403;47.456;19.120;2023-11-21T06:08:16;99805.78;;;4.30;100.00
71567;BME280;59403;47.456;19.120;2023-11-21T06:10:44;99813.66;;;4.30;100.00
71567;BME280;59403;47.456;19.120;2023-11-21T06:13:14;99829.12;;;4.33;100.00
71567;BME280;59403;47.456;19.120;2023-11-21T06:15:41;99836.84;;;4.35;100.00
71567;BME280;59403;47.456;19.120;2023-11-21T06:18:08;99839.31;;;4.36;100.00
71567;BME280;59403;47.456;19.120;2023-11-21T06:20:36;99839.31;;;4.36;100.00
71567;BME280;59403;47.456;19.120;2023-11-21T06:23:03;99835.75;;;4.37;100.00
71567;BME280;59403;47.456;19.120;2023-11-21T06:25:32;99846.25;;;4.37;100.00
71567;BME280;59403;47.456;19.120;2023-11-21T06:28:01;99853.12;;;4.38;100.00
71567;BME280;59403;47.456;19.120;2023-11-21T06:30:28;99851.09;;;4.42;100.00
71567;BME280;59403;47.456;19.120;2023-11-21T06:32:55;99851.78;;;4.44;100.00
71567;BME280;59403;47.456;19.120;2023-11-21T06:35:22;99855.25;;;4.44;100.00
71567;BME280;59403;47.456;19.120;2023-11-21T06:37:49;99864.50;;;4.48;100.00
71567;BME280;59403;47.456;19.120;2023-11-21T06:40:17;99867.00;;;4.50;100.00
71567;BME280;59403;47.456;19.120;2023-11-21T06:42:46;99875.41;;;4.53;100.00
71567;BME280;59403;47.456;19.120;2023-11-21T06:45:13;99882.47;;;4.53;100.00
71567;BME280;59403;47.456;19.120;2023-11-21T06:47:40;99883.16;;;4.55;100.00
71567;BME280;59403;47.456;19.120;2023-11-21T06:50:08;99890.75;;;4.58;100.00
71567;BME280;59403;47.456;19.120;2023-11-21T06:52:35;99882.91;;;4.58;100.00
71567;BME280;59403;47.456;19.120;2023-11-21T06:55:02;99882.75;;;4.59;100.00
71567;BME280;59403;47.456;19.120;2023-11-21T06:57:29;99888.56;;;4.63;100.00
71567;BME280;59403;47.456;19.120;2023-11-21T07:00:01;99894.53;;;4.65;100.00
71567;BME280;59403;47.456;19.120;2023-11-21T07:02:28;99888.00;;;4.59;100.00
71567;BME280;59403;47.456;19.120;2023-11-21T07:04:55;99896.88;;;4.68;100.00
71567;BME280;59403;47.456;19.120;2023-11-21T07:07:22;99880.88;;;4.71;100.00
71567;BME280;59403;47.456;19.120;2023-11-21T07:09:48;99885.16;;;4.72;100.00
71567;BME280;59403;47.456;19.120;2023-11-21T07:12:17;99893.19;;;4.80;100.00
71567;BME280;59403;47.456;19.120;2023-11-21T07:14:44;99892.91;;;4.83;100.00
71567;BME280;59403;47.456;19.120;2023-11-21T07:17:12;99896.44;;;4.93;100.00
71567;BME280;59403;47.456;19.120;2023-11-21T07:19:39;99884.16;;;5.03;100.00
71567;BME280;59403;47.456;19.120;2023-11-21T07:22:07;99886.78;;;5.03;100.00
71567;BME280;59403;47.456;19.120;2023-11-21T07:24:34;99886.78;;;5.13;100.00
71567;BME280;59403;47.456;19.120;2023-11-21T07:27:02;99894.00;;;5.20;100.00
71567;BME280;59403;47.456;19.120;2023-11-21T07:29:29;99886.13;;;5.20;100.00
71567;BME280;59403;47.456;19.120;2023-11-21T07:31:56;99877.72;;;5.26;100.00
71567;BME280;59403;47.456;19.120;2023-11-21T07:34:25;99880.75;;;5.31;100.00
71567;BME280;59403;47.456;19.120;2023-11-21T07:36:51;99888.78;;;5.30;100.00
71567;BME280;59403;47.456;19.120;2023-11-21T07:39:18;99888.88;;;5.28;100.00
71567;BME280;59403;47.456;19.120;2023-11-21T07:41:45;99881.88;;;5.48;100.00
71567;BME280;59403;47.456;19.120;2023-11-21T07:44:14;99884.91;;;5.43;100.00
71567;BME280;59403;47.456;19.120;2023-11-21T07:46:42;99881.31;;;5.44;100.00
71567;BME280;59403;47.456;19.120;2023-11-21T07:49:08;99892.66;;;5.45;100.00
71567;BME280;59403;47.456;19.120;2023-11-21T07:51:37;99888.34;;;5.44;100.00
71567;BME280;59403;47.456;19.120;2023-11-21T07:54:04;99894.59;;;5.43;100.00
71567;BME280;59403;47.456;19.120;2023-11-21T07:56:31;99884.63;;;5.46;100.00
71567;BME280;59403;47.456;19.120;2023-11-21T07:58:57;99897.62;;;5.48;100.00
71567;BME280;59403;47.456;19.120;2023-11-21T08:01:24;99888.66;;;5.50;100.00
71567;BME280;59403;47.456;19.120;2023-11-21T08:03:53;99889.63;;;5.59;100.00
71567;BME280;59403;47.456;19.120;2023-11-21T08:06:22;99888.13;;;5.66;100.00
71567;BME280;59403;47.456;19.120;2023-11-21T08:08:52;99890.59;;;5.67;100.00
71567;BME280;59403;47.456;19.120;2023-11-21T08:11:19;99889.38;;;5.71;100.00
71567;BME280;59403;47.456;19.120;2023-11-21T08:13:46;99895.97;;;5.75;100.00
71567;BME280;59403;47.456;19.120;2023-11-21T08:16:14;99882.69;;;5.77;100.00
71567;BME280;59403;47.456;19.120;2023-11-21T08:18:42;99876.22;;;5.81;100.00
71567;BME280;59403;47.456;19.120;2023-11-21T08:21:09;99880.41;;;5.84;100.00
71567;BME280;59403;47.456;19.120;2023-11-21T08:23:37;99884.69;;;5.85;100.00
71567;BME280;59403;47.456;19.120;2023-11-21T08:26:05;99879.69;;;5.91;100.00
71567;BME280;59403;47.456;19.120;2023-11-21T08:28:34;99876.66;;;5.96;100.00
71567;BME280;59403;47.456;19.120;2023-11-21T08:31:01;99873.03;;;5.97;100.00
71567;BME280;59403;47.456;19.120;2023-11-21T08:33:28;99871.66;;;6.02;100.00
71567;BME280;59403;47.456;19.120;2023-11-21T08:35:55;99867.09;;;6.04;100.00
71567;BME280;59403;47.456;19.120;2023-11-21T08:38:22;99865.81;;;6.08;100.00
71567;BME280;59403;47.456;19.120;2023-11-21T08:40:49;99864.87;;;6.09;100.00
71567;BME280;59403;47.456;19.120;2023-11-21T08:43:17;99860.56;;;6.08;100.00
71567;BME280;59403;47.456;19.120;2023-11-21T08:45:45;99864.03;;;6.09;100.00
71567;BME280;59403;47.456;19.120;2023-11-21T08:48:12;99866.91;;;6.15;100.00
71567;BME280;59403;47.456;19.120;2023-11-21T08:50:39;99862.19;;;6.19;100.00
71567;BME280;59403;47.456;19.120;2023-11-21T08:53:05;99861.91;;;6.31;100.00
71567;BME280;59403;47.456;19.120;2023-11-21T08:55:32;99867.94;;;6.41;100.00
71567;BME280;59403;47.456;19.120;2023-11-21T08:58:02;99868.00;;;6.32;100.00
71567;BME280;59403;47.456;19.120;2023-11-21T09:00:32;99869.94;;;6.30;100.00
71567;BME280;59403;47.456;19.120;2023-11-21T09:02:59;99867.59;;;6.27;100.00
71567;BME280;59403;47.456;19.120;2023-11-21T09:05:27;99871.19;;;6.26;100.00
71567;BME280;59403;47.456;19.120;2023-11-21T09:07:54;99871.87;;;6.28;100.00
71567;BME280;59403;47.456;19.120;2023-11-21T09:10:21;99877.69;;;6.31;100.00
71567;BME280;59403;47.456;19.120;2023-11-21T09:12:49;99878.91;;;6.37;100.00
71567;BME280;59403;47.456;19.120;2023-11-21T09:15:17;99879.59;;;6.39;100.00
71567;BME280;59403;47.456;19.120;2023-11-21T09:17:47;99872.41;;;6.41;100.00
71567;BME280;59403;47.456;19.120;2023-11-21T09:20:14;99878.34;;;6.43;100.00
71567;BME280;59403;47.456;19.120;2023-11-21T09:22:41;99867.69;;;6.44;100.00
71567;BME280;59403;47.456;19.120;2023-11-21T09:25:10;99864.06;;;6.45;100.00
71567;BME280;59403;47.456;19.120;2023-11-21T09:27:37;99857.72;;;6.48;100.00
71567;BME280;59403;47.456;19.120;2023-11-21T09:30:04;99856.72;;;6.49;100.00
71567;BME280;59403;47.456;19.120;2023-11-21T09:32:34;99854.94;;;6.49;100.00
71567;BME280;59403;47.456;19.120;2023-11-21T09:35:04;99859.88;;;6.52;100.00
71567;BME280;59403;47.456;19.120;2023-11-21T09:37:33;99851.84;;;6.54;100.00
71567;BME280;59403;47.456;19.120;2023-11-21T09:40:01;99848.81;;;6.58;100.00
71567;BME280;59403;47.456;19.120;2023-11-21T09:42:32;99846.56;;;6.63;100.00
71567;BME280;59403;47.456;19.120;2023-11-21T09:45:07;99846.41;;;6.65;100.00
71567;BME280;59403;47.456;19.120;2023-11-21T09:47:38;99837.25;;;6.69;100.00
71567;BME280;59403;47.456;19.120;2023-11-21T09:50:08;99840.03;;;6.67;100.00
71567;BME280;59403;47.456;19.120;2023-11-21T09:52:44;99838.91;;;6.70;100.00
71567;BME280;59403;47.456;19.120;2023-11-21T09:55:16;99834.03;;;6.75;100.00
71567;BME280;59403;47.456;19.120;2023-11-21T09:57:47;99834.88;;;6.75;100.00
71567;BME280;59403;47.456;19.120;2023-11-21T10:00:15;99831.63;;;6.81;100.00
71567;BME280;59403;47.456;19.120;2023-11-21T10:02:43;99829.84;;;6.82;100.00
71567;BME280;59403;47.456;19.120;2023-11-21T10:05:13;99834.28;;;6.81;100.00
71567;BME280;59403;47.456;19.120;2023-11-21T10:07:42;99830.84;;;6.81;100.00
71567;BME280;59403;47.456;19.120;2023-11-21T10:10:10;99826.53;;;6.80;100.00
71567;BME280;59403;47.456;19.120;2023-11-21T10:12:38;99823.59;;;6.83;100.00
71567;BME280;59403;47.456;19.120;2023-11-21T10:15:08;99828.75;;;6.84;100.00
71567;BME280;59403;47.456;19.120;2023-11-21T10:17:38;99824.44;;;6.83;100.00
71567;BME280;59403;47.456;19.120;2023-11-21T10:20:12;99819.84;;;6.85;100.00
71567;BME280;59403;47.456;19.120;2023-11-21T10:22:40;99821.34;;;6.88;100.00
71567;BME280;59403;47.456;19.120;2023-11-21T10:25:08;99814.81;;;6.92;100.00
71567;BME280;59403;47.456;19.120;2023-11-21T10:27:35;99823.09;;;6.97;100.00
71567;BME280;59403;47.456;19.120;2023-11-21T10:30:05;99815.03;;;6.99;100.00
71567;BME280;59403;47.456;19.120;2023-11-21T10:32:33;99818.37;;;7.01;100.00
71567;BME280;59403;47.456;19.120;2023-11-21T10:35:00;99818.22;;;7.02;100.00
71567;BME280;59403;47.456;19.120;2023-11-21T10:37:33;99819.88;;;7.03;100.00
71567;BME280;59403;47.456;19.120;2023-11-21T10:40:00;99812.81;;;7.04;100.00
71567;BME280;59403;47.456;19.120;2023-11-21T10:42:27;99816.13;;;7.06;100.00
71567;BME280;59403;47.456;19.120;2023-11-21T10:44:54;99813.34;;;7.07;100.00
71567;BME280;59403;47.456;19.120;2023-11-21T10:47:21;99809.72;;;7.08;100.00
71567;BME280;59403;47.456;19.120;2023-11-21T10:49:49;99809.44;;;7.11;100.00
71567;BME280;59403;47.456;19.120;2023-11-21T10:52:18;99817.16;;;7.13;100.00
71567;BME280;59403;47.456;19.120;2023-11-21T10:54:47;99808.00;;;7.17;100.00
71567;BME280;59403;47.456;19.120;2023-11-21T10:57:18;99809.66;;;7.18;100.00
71567;BME280;59403;47.456;19.120;2023-11-21T10:59:47;99814.19;;;7.25;100.00
71567;BME280;59403;47.456;19.120;2023-11-21T11:02:21;99819.13;;;7.28;100.00
71567;BME280;59403;47.456;19.120;2023-11-21T11:04:52;99815.53;;;7.29;100.00
71567;BME280;59403;47.456;19.120;2023-11-21T11:07:21;99812.44;;;7.34;100.00
71567;BME280;59403;47.456;19.120;2023-11-21T11:09:54;99813.97;;;7.36;100.00
71567;BME280;59403;47.456;19.120;2023-11-21T11:12:21;99808.69;;;7.36;100.00
71567;BME280;59403;47.456;19.120;2023-11-21T11:14:48;99806.59;;;7.40;100.00
71567;BME280;59403;47.456;19.120;2023-11-21T11:17:15;99806.44;;;7.41;100.00
71567;BME280;59403;47.456;19.120;2023-11-21T11:19:45;99814.19;;;7.43;100.00
71567;BME280;59403;47.456;19.120;2023-11-21T11:22:23;99807.81;;;7.45;100.00
71567;BME280;59403;47.456;19.120;2023-11-21T11:25:06;99793.63;;;7.46;100.00
71567;BME280;59403;47.456;19.120;2023-11-21T11:27:47;99797.91;;;7.47;100.00
71567;BME280;59403;47.456;19.120;2023-11-21T11:30:27;99795.81;;;7.51;100.00
71567;BME280;59403;47.456;19.120;2023-11-21T11:33:08;99795.81;;;7.51;100.00
71567;BME280;59403;47.456;19.120;2023-11-21T11:35:42;99788.56;;;7.53;100.00
71567;BME280;59403;47.456;19.120;2023-11-21T11:38:13;99783.84;;;7.56;100.00
71567;BME280;59403;47.456;19.120;2023-11-21T11:40:45;99785.19;;;7.60;100.00
71567;BME280;59403;47.456;19.120;2023-11-21T11:43:12;99786.84;;;7.61;100.00
71567;BME280;59403;47.456;19.120;2023-11-21T11:45:39;99781.56;;;7.61;100.00
71567;BME280;59403;47.456;19.120;2023-11-21T11:48:08;99780.44;;;7.64;100.00
71567;BME280;59403;47.456;19.120;2023-11-21T11:50:42;99777.66;;;7.65;100.00
71567;BME280;59403;47.456;19.120;2023-11-21T11:53:33;99786.59;;;7.72;100.00
71567;BME280;59403;47.456;19.120;2023-11-21T11:56:21;99780.66;;;7.70;100.00
71567;BME280;59403;47.456;19.120;2023-11-21T11:58:49;99773.41;;;7.72;100.00
71567;BME280;59403;47.456;19.120;2023-11-21T12:01:17;99771.31;;;7.76;100.00
71567;BME280;59403;47.456;19.120;2023-11-21T12:03:47;99774.91;;;7.75;100.00
71567;BME280;59403;47.456;19.120;2023-11-21T12:06:34;99769.34;;;7.78;100.00
71567;BME280;59403;47.456;19.120;2023-11-21T12:09:02;99762.47;;;7.85;100.00
71567;BME280;59403;47.456;19.120;2023-11-21T12:11:32;99760.66;;;7.85;100.00
71567;BME280;59403;47.456;19.120;2023-11-21T12:14:01;99752.59;;;7.87;100.00
71567;BME280;59403;47.456;19.120;2023-11-21T12:16:28;99762.47;;;7.85;100.00
71567;BME280;59403;47.456;19.120;2023-11-21T12:18:59;99759.69;;;7.86;100.00
71567;BME280;59403;47.456;19.120;2023-11-21T12:21:26;99763.16;;;7.87;100.00
71567;BME280;59403;47.456;19.120;2023-11-21T12:23:53;99761.16;;;7.89;100.00
71567;BME280;59403;47.456;19.120;2023-11-21T12:26:23;99763.16;;;7.87;100.00
71567;BME280;59403;47.456;19.120;2023-11-21T12:28:53;99765.78;;;7.87;100.00
71567;BME280;59403;47.456;19.120;2023-11-21T12:31:21;99758.84;;;7.86;100.00
71567;BME280;59403;47.456;19.120;2023-11-21T12:33:48;99762.31;;;7.86;100.00
71567;BME280;59403;47.456;19.120;2023-11-21T12:36:15;99757.87;;;7.87;100.00
71567;BME280;59403;47.456;19.120;2023-11-21T12:38:42;99749.81;;;7.88;100.00
71567;BME280;59403;47.456;19.120;2023-11-21T12:41:09;99747.38;;;7.95;100.00
71567;BME280;59403;47.456;19.120;2023-11-21T12:43:36;99743.91;;;7.94;100.00
71567;BME280;59403;47.456;19.120;2023-11-21T12:46:07;99752.66;;;7.95;100.00
71567;BME280;59403;47.456;19.120;2023-11-21T12:48:36;99755.13;;;7.96;100.00
71567;BME280;59403;47.456;19.120;2023-11-21T12:51:05;99744.56;;;7.96;100.00
71567;BME280;59403;47.456;19.120;2023-11-21T12:53:32;99756.94;;;7.96;100.00
71567;BME280;59403;47.456;19.120;2023-11-21T12:56:07;99756.13;;;7.95;100.00
71567;BME280;59403;47.456;19.120;2023-11-21T12:58:34;99750.16;;;7.93;100.00